createdAt,value
2023-01-19T00:00:11.833Z,99969.00
2023-01-19T00:01:24.111Z,99970.09
2023-01-19T00:02:25.777Z,99975.06
2023-01-19T00:03:27.402Z,99976.94
2023-01-19T00:04:28.955Z,99979.56
2023-01-19T00:05:30.873Z,99984.66
2023-01-19T00:06:32.839Z,99969.19
2023-01-19T00:07:34.990Z,99976.75
2023-01-19T00:08:37.122Z,99978.53
2023-01-19T00:09:46.145Z,99974.22
2023-01-19T00:10:51.168Z,99975.06
2023-01-19T00:11:52.714Z,99972.44
2023-01-19T00:12:54.245Z,99975.00
2023-01-19T00:13:55.892Z,99976.66
2023-01-19T00:14:58.787Z,99973.91
2023-01-19T00:16:00.352Z,99974.63
2023-01-19T00:17:01.904Z,99970.16
2023-01-19T00:18:04.293Z,99969.97
2023-01-19T00:19:05.774Z,99975.84
2023-01-19T00:20:08.902Z,99976.53
2023-01-19T00:21:10.890Z,99976.53
2023-01-19T00:22:12.424Z,99975.84
2023-01-19T00:23:15.921Z,99972.69
2023-01-19T00:24:19.193Z,99974.44
2023-01-19T00:25:20.662Z,99976.41
2023-01-19T00:26:22.369Z,99976.56
2023-01-19T00:27:24.815Z,99974.09
2023-01-19T00:28:26.375Z,99972.72
2023-01-19T00:29:30.735Z,99976.22
2023-01-19T00:30:32.203Z,99977.41
2023-01-19T00:31:36.192Z,99977.59
2023-01-19T00:32:37.803Z,99978.63
2023-01-19T00:33:39.269Z,99978.81
2023-01-19T00:34:49.205Z,99975.47
2023-01-19T00:35:52.839Z,99973.03
2023-01-19T00:36:54.399Z,99974.78
2023-01-19T00:37:57.039Z,99979.97
2023-01-19T00:38:58.915Z,99977.53
2023-01-19T00:40:00.419Z,99975.94
2023-01-19T00:41:01.930Z,99980.34
2023-01-19T00:42:22.789Z,99974.53
2023-01-19T00:43:24.318Z,99979.03
2023-01-19T00:44:25.788Z,99979.19
2023-01-19T00:45:27.410Z,99973.59
2023-01-19T00:46:28.925Z,99974.56
2023-01-19T00:47:32.035Z,99972.97
2023-01-19T00:48:33.516Z,99971.50
2023-01-19T00:49:34.961Z,99969.13
2023-01-19T00:50:36.456Z,99968.41
2023-01-19T00:51:38.164Z,99973.69
2023-01-19T00:52:44.393Z,99968.56
2023-01-19T00:53:45.913Z,99963.56
2023-01-19T00:54:47.455Z,99961.09
2023-01-19T00:55:48.919Z,99962.00
2023-01-19T00:56:50.425Z,99963.81
2023-01-19T00:57:51.935Z,99965.69
2023-01-19T00:58:53.423Z,99959.00
2023-01-19T00:59:54.992Z,99958.03
2023-01-19T01:01:03.373Z,99959.78
2023-01-19T01:02:05.483Z,99964.16
2023-01-19T01:03:07.242Z,99956.44
2023-01-19T01:04:08.879Z,99964.97
2023-01-19T01:05:11.764Z,99959.84
2023-01-19T01:06:13.604Z,99956.72
2023-01-19T01:07:15.089Z,99962.78
2023-01-19T01:08:16.552Z,99963.13
2023-01-19T01:09:18.048Z,99962.22
2023-01-19T01:10:25.767Z,99957.13
2023-01-19T01:11:27.268Z,99954.84
2023-01-19T01:12:29.356Z,99960.13
2023-01-19T01:13:31.461Z,99971.28
2023-01-19T01:14:33.471Z,99968.28
2023-01-19T01:15:34.970Z,99960.72
2023-01-19T01:16:36.553Z,99964.25
2023-01-19T01:17:47.064Z,99963.44
2023-01-19T01:18:48.539Z,99969.41
2023-01-19T01:19:50.409Z,99974.63
2023-01-19T01:20:52.749Z,99973.84
2023-01-19T01:21:55.685Z,99970.38
2023-01-19T01:22:57.786Z,99969.34
2023-01-19T01:23:59.431Z,99968.97
2023-01-19T01:25:00.921Z,99971.19
2023-01-19T01:26:02.401Z,99974.19
2023-01-19T01:27:03.883Z,99975.38
2023-01-19T01:28:08.630Z,99979.13
2023-01-19T01:29:10.145Z,99982.91
2023-01-19T01:30:14.225Z,99981.69
2023-01-19T01:31:15.777Z,99976.22
2023-01-19T01:32:17.401Z,99976.66
2023-01-19T01:33:41.302Z,99973.75
2023-01-19T01:34:41.296Z,99980.25
2023-01-19T01:35:42.778Z,99983.47
2023-01-19T01:36:44.289Z,99986.81
2023-01-19T01:37:45.906Z,99993.09
2023-01-19T01:38:47.364Z,99996.81
2023-01-19T01:39:48.821Z,99999.47
2023-01-19T01:40:50.688Z,100000.25
2023-01-19T01:41:52.194Z,100000.44
2023-01-19T01:42:57.902Z,99995.34
2023-01-19T01:44:01.687Z,100005.91
2023-01-19T01:45:30.675Z,100006.25
2023-01-19T01:46:33.091Z,99996.31
2023-01-19T01:47:44.225Z,100002.44
2023-01-19T01:48:55.311Z,100003.59
2023-01-19T01:50:10.947Z,100004.66
2023-01-19T01:51:24.472Z,99998.06
2023-01-19T01:52:29.466Z,100003.25
2023-01-19T01:53:34.526Z,99999.19
2023-01-19T01:54:36.477Z,100003.69
2023-01-19T01:55:45.752Z,100007.19
2023-01-19T01:56:51.775Z,100001.38
2023-01-19T01:57:58.223Z,100006.63
2023-01-19T01:59:05.961Z,99999.94
2023-01-19T02:00:08.570Z,99999.25
2023-01-19T02:01:30.081Z,99996.88
2023-01-19T02:02:51.058Z,100001.19
2023-01-19T02:03:54.381Z,99995.28
2023-01-19T02:05:06.350Z,99994.63
2023-01-19T02:06:09.870Z,99990.59
2023-01-19T02:07:39.164Z,99989.16
2023-01-19T02:09:21.708Z,99989.97
2023-01-19T23:19:17.039Z,100713.50
2023-01-19T23:20:19.649Z,100715.19
2023-01-19T23:21:23.670Z,100717.06
2023-01-19T23:22:25.493Z,100721.38
2023-01-19T23:23:26.956Z,100715.41
2023-01-19T23:24:28.393Z,100717.97
2023-01-19T23:25:31.755Z,100711.94
2023-01-19T23:26:38.256Z,100715.28
2023-01-19T23:27:39.939Z,100719.41
2023-01-19T23:28:42.230Z,100713.44
2023-01-19T23:29:43.875Z,100713.03
2023-01-19T23:30:45.560Z,100713.81
2023-01-19T23:31:49.320Z,100717.97
2023-01-19T23:32:51.055Z,100719.03
2023-01-19T23:33:58.407Z,100723.34
2023-01-19T23:34:59.789Z,100720.91
2023-01-19T23:36:01.232Z,100722.66
2023-01-19T23:37:02.876Z,100724.53
2023-01-19T23:38:04.403Z,100730.94
2023-01-19T23:39:18.675Z,100728.47
2023-01-19T23:40:20.197Z,100728.69
2023-01-19T23:41:22.828Z,100724.53
2023-01-19T23:42:24.546Z,100728.34
2023-01-19T23:43:26.075Z,100727.06
2023-01-19T23:44:27.553Z,100728.25
2023-01-19T23:45:29.047Z,100724.22
2023-01-19T23:46:31.293Z,100738.38
2023-01-19T23:47:36.511Z,100733.44
2023-01-19T23:48:38.512Z,100735.22
2023-01-19T23:49:40.145Z,100730.97
2023-01-19T23:50:41.719Z,100739.44
2023-01-19T23:51:43.216Z,100735.03
2023-01-19T23:52:44.682Z,100743.69
2023-01-19T23:53:47.156Z,100733.34
2023-01-19T23:54:48.795Z,100743.13
2023-01-19T23:55:50.320Z,100740.63
2023-01-19T23:56:51.773Z,100743.50
2023-01-19T23:57:53.244Z,100744.38
2023-01-19T23:58:59.444Z,100745.16
